sensor_id;sensor_type;location;lat;lon;timestamp;pressure;altitude;pressure_sealevel;temperature;humidity
80382;BME280;69692;55.820;37.490;2023-09-19T00:00:46;100309.41;;;12.50;79.56
80382;BME280;69692;55.820;37.490;2023-09-19T00:03:15;100302.31;;;12.49;79.47
80382;BME280;69692;55.820;37.490;2023-09-19T00:05:41;100306.91;;;12.49;81.01
80382;BME280;69692;55.820;37.490;2023-09-19T00:08:10;100310.00;;;12.52;79.25
80382;BME280;69692;55.820;37.490;2023-09-19T00:10:38;100312.91;;;12.51;78.97
80382;BME280;69692;55.820;37.490;2023-09-19T00:13:06;100312.09;;;12.50;79.80
80382;BME280;69692;55.820;37.490;2023-09-19T00:15:40;100313.13;;;12.49;80.10
80382;BME280;69692;55.820;37.490;2023-09-19T00:18:06;100313.75;;;12.51;80.63
80382;BME280;69692;55.820;37.490;2023-09-19T00:20:35;100308.34;;;12.51;78.95
80382;BME280;69692;55.820;37.490;2023-09-19T00:23:00;100305.88;;;12.50;78.11
80382;BME280;69692;55.820;37.490;2023-09-19T00:25:35;100307.94;;;12.48;77.90
80382;BME280;69692;55.820;37.490;2023-09-19T00:28:04;100310.66;;;12.48;77.32
80382;BME280;69692;55.820;37.490;2023-09-19T00:30:30;100304.44;;;12.47;78.11
80382;BME280;69692;55.820;37.490;2023-09-19T00:32:57;100302.31;;;12.49;77.89
80382;BME280;69692;55.820;37.490;2023-09-19T00:35:23;100307.88;;;12.54;77.57
80382;BME280;69692;55.820;37.490;2023-09-19T00:37:53;100304.13;;;12.56;76.97
80382;BME280;69692;55.820;37.490;2023-09-19T00:40:19;100306.59;;;12.57;77.20
80382;BME280;69692;55.820;37.490;2023-09-19T00:42:47;100302.25;;;12.56;76.97
80382;BME280;69692;55.820;37.490;2023-09-19T00:45:15;100308.13;;;12.53;76.99
80382;BME280;69692;55.820;37.490;2023-09-19T00:47:48;100308.34;;;12.51;77.06
80382;BME280;69692;55.820;37.490;2023-09-19T00:50:17;100305.66;;;12.51;76.87
80382;BME280;69692;55.820;37.490;2023-09-19T00:52:47;100311.03;;;12.51;76.93
80382;BME280;69692;55.820;37.490;2023-09-19T00:55:15;100312.09;;;12.50;77.18
80382;BME280;69692;55.820;37.490;2023-09-19T00:57:46;100311.69;;;12.47;77.40
80382;BME280;69692;55.820;37.490;2023-09-19T01:00:16;100307.13;;;12.47;76.84
80382;BME280;69692;55.820;37.490;2023-09-19T01:02:42;100310.41;;;12.49;76.95
80382;BME280;69692;55.820;37.490;2023-09-19T01:05:09;100314.41;;;12.47;77.25
80382;BME280;69692;55.820;37.490;2023-09-19T01:07:36;100306.91;;;12.49;77.11
80382;BME280;69692;55.820;37.490;2023-09-19T01:10:06;100306.31;;;12.47;77.03
80382;BME280;69692;55.820;37.490;2023-09-19T01:18:11;100302.94;;;12.51;77.13
80382;BME280;69692;55.820;37.490;2023-09-19T01:20:57;100299.63;;;12.49;77.22
80382;BME280;69692;55.820;37.490;2023-09-19T01:26:18;100301.97;;;12.46;76.90
80382;BME280;69692;55.820;37.490;2023-09-19T01:31:40;100304.81;;;12.51;76.86
80382;BME280;69692;55.820;37.490;2023-09-19T01:34:07;100303.78;;;12.52;76.42
80382;BME280;69692;55.820;37.490;2023-09-19T01:36:36;100302.94;;;12.51;76.57
80382;BME280;69692;55.820;37.490;2023-09-19T01:39:07;100302.94;;;12.51;76.91
80382;BME280;69692;55.820;37.490;2023-09-19T01:41:58;100308.78;;;12.48;76.37
80382;BME280;69692;55.820;37.490;2023-09-19T01:44:47;100287.19;;;12.48;76.55
80382;BME280;69692;55.820;37.490;2023-09-19T01:47:46;100296.72;;;12.51;76.38
80382;BME280;69692;55.820;37.490;2023-09-19T01:50:31;100292.75;;;12.53;76.16
80382;BME280;69692;55.820;37.490;2023-09-19T01:53:36;100281.47;;;12.57;76.48
80382;BME280;69692;55.820;37.490;2023-09-19T01:56:08;100276.09;;;12.57;76.66
80382;BME280;69692;55.820;37.490;2023-09-19T01:58:45;100274.44;;;12.56;76.67
80382;BME280;69692;55.820;37.490;2023-09-19T02:01:18;100265.50;;;12.55;76.14
80382;BME280;69692;55.820;37.490;2023-09-19T02:03:49;100270.69;;;12.57;76.46
80382;BME280;69692;55.820;37.490;2023-09-19T02:06:16;100265.88;;;12.59;76.44
80382;BME280;69692;55.820;37.490;2023-09-19T02:08:43;100264.59;;;12.61;76.00
80382;BME280;69692;55.820;37.490;2023-09-19T02:11:14;100259.88;;;12.57;76.40
80382;BME280;69692;55.820;37.490;2023-09-19T02:13:41;100253.91;;;12.54;76.11
80382;BME280;69692;55.820;37.490;2023-09-19T02:16:09;100263.06;;;12.53;75.77
80382;BME280;69692;55.820;37.490;2023-09-19T02:18:36;100263.06;;;12.53;76.25
80382;BME280;69692;55.820;37.490;2023-09-19T02:21:03;100263.06;;;12.53;76.87
80382;BME280;69692;55.820;37.490;2023-09-19T02:23:30;100265.16;;;12.51;76.08
80382;BME280;69692;55.820;37.490;2023-09-19T02:25:59;100249.84;;;12.45;76.32
80382;BME280;69692;55.820;37.490;2023-09-19T02:28:29;100256.06;;;12.46;76.18
80382;BME280;69692;55.820;37.490;2023-09-19T02:30:58;100253.59;;;12.44;76.83
80382;BME280;69692;55.820;37.490;2023-09-19T02:33:24;100250.31;;;12.42;76.65
80382;BME280;69692;55.820;37.490;2023-09-19T02:35:56;100252.19;;;12.42;77.09
80382;BME280;69692;55.820;37.490;2023-09-19T02:38:27;100241.41;;;12.42;77.23
80382;BME280;69692;55.820;37.490;2023-09-19T02:40:54;100236.59;;;12.44;76.89
80382;BME280;69692;55.820;37.490;2023-09-19T02:43:21;100242.59;;;12.46;76.65
80382;BME280;69692;55.820;37.490;2023-09-19T02:45:49;100246.56;;;12.43;77.50
80382;BME280;69692;55.820;37.490;2023-09-19T02:48:20;100250.31;;;12.42;78.05
80382;BME280;69692;55.820;37.490;2023-09-19T02:50:49;100246.56;;;12.43;77.62
80382;BME280;69692;55.820;37.490;2023-09-19T02:53:15;100249.84;;;12.45;77.98
80382;BME280;69692;55.820;37.490;2023-09-19T02:55:41;100254.06;;;12.41;77.65
80382;BME280;69692;55.820;37.490;2023-09-19T02:58:08;100254.53;;;12.38;77.71
80382;BME280;69692;55.820;37.490;2023-09-19T03:00:37;100252.44;;;12.40;78.13
80382;BME280;69692;55.820;37.490;2023-09-19T03:03:04;100247.03;;;12.40;77.74
80382;BME280;69692;55.820;37.490;2023-09-19T03:05:33;100249.13;;;12.38;77.75
80382;BME280;69692;55.820;37.490;2023-09-19T03:08:00;100248.66;;;12.41;77.40
80382;BME280;69692;55.820;37.490;2023-09-19T03:10:30;100254.31;;;12.40;76.77
80382;BME280;69692;55.820;37.490;2023-09-19T03:12:58;100258.66;;;12.41;76.98
80382;BME280;69692;55.820;37.490;2023-09-19T03:15:27;100263.44;;;12.39;77.03
80382;BME280;69692;55.820;37.490;2023-09-19T03:17:54;100262.41;;;12.40;77.34
80382;BME280;69692;55.820;37.490;2023-09-19T03:20:22;100258.41;;;12.42;77.36
80382;BME280;69692;55.820;37.490;2023-09-19T03:22:50;100259.00;;;12.44;76.84
80382;BME280;69692;55.820;37.490;2023-09-19T03:25:16;100259.00;;;12.44;77.08
80382;BME280;69692;55.820;37.490;2023-09-19T03:27:45;100264.75;;;12.48;76.94
80382;BME280;69692;55.820;37.490;2023-09-19T03:30:13;100261.84;;;12.49;76.70
80382;BME280;69692;55.820;37.490;2023-09-19T03:32:48;100261.25;;;12.47;76.23
80382;BME280;69692;55.820;37.490;2023-09-19T03:35:17;100263.34;;;12.45;76.64
80382;BME280;69692;55.820;37.490;2023-09-19T03:37:43;100265.00;;;12.46;77.03
80382;BME280;69692;55.820;37.490;2023-09-19T03:40:11;100258.31;;;12.49;76.34
80382;BME280;69692;55.820;37.490;2023-09-19T03:42:38;100255.63;;;12.49;76.60
80382;BME280;69692;55.820;37.490;2023-09-19T03:45:05;100255.84;;;12.47;76.42
80382;BME280;69692;55.820;37.490;2023-09-19T03:47:32;100261.25;;;12.47;76.63
80382;BME280;69692;55.820;37.490;2023-09-19T03:50:01;100249.84;;;12.45;76.43
80382;BME280;69692;55.820;37.490;2023-09-19T03:52:29;100245.06;;;12.47;76.43
80382;BME280;69692;55.820;37.490;2023-09-19T03:54:55;100247.75;;;12.47;76.52
80382;BME280;69692;55.820;37.490;2023-09-19T03:57:21;100245.63;;;12.49;76.70
80382;BME280;69692;55.820;37.490;2023-09-19T03:59:47;100251.91;;;12.50;76.59
80382;BME280;69692;55.820;37.490;2023-09-19T04:02:13;100242.94;;;12.49;76.17
80382;BME280;69692;55.820;37.490;2023-09-19T04:04:50;100241.53;;;12.47;76.45
80382;BME280;69692;55.820;37.490;2023-09-19T04:07:16;100245.06;;;12.47;76.46
80382;BME280;69692;55.820;37.490;2023-09-19T04:09:42;100243.41;;;12.46;76.91
80382;BME280;69692;55.820;37.490;2023-09-19T04:12:08;100237.53;;;12.49;76.81
80382;BME280;69692;55.820;37.490;2023-09-19T04:14:34;100234.03;;;12.49;76.79
80382;BME280;69692;55.820;37.490;2023-09-19T04:17:00;100238.41;;;12.50;76.87
80382;BME280;69692;55.820;37.490;2023-09-19T04:19:26;100233.19;;;12.48;77.01
80382;BME280;69692;55.820;37.490;2023-09-19T04:21:52;100219.03;;;12.53;77.17
80382;BME280;69692;55.820;37.490;2023-09-19T04:24:18;100223.28;;;12.61;77.07
80382;BME280;69692;55.820;37.490;2023-09-19T04:26:45;100228.84;;;12.66;76.88
80382;BME280;69692;55.820;37.490;2023-09-19T04:29:11;100222.38;;;12.67;77.34
80382;BME280;69692;55.820;37.490;2023-09-19T04:31:40;100230.00;;;12.70;77.24
80382;BME280;69692;55.820;37.490;2023-09-19T04:34:06;100230.84;;;12.70;76.79
80382;BME280;69692;55.820;37.490;2023-09-19T04:36:34;100217.69;;;12.74;76.64
80382;BME280;69692;55.820;37.490;2023-09-19T04:39:03;100218.03;;;12.77;77.05
80382;BME280;69692;55.820;37.490;2023-09-19T04:41:33;100221.72;;;12.83;77.11
80382;BME280;69692;55.820;37.490;2023-09-19T04:44:00;100216.44;;;12.88;76.45
80382;BME280;69692;55.820;37.490;2023-09-19T04:46:26;100217.50;;;12.87;76.23
80382;BME280;69692;55.820;37.490;2023-09-19T04:48:52;100212.91;;;12.88;76.38
80382;BME280;69692;55.820;37.490;2023-09-19T04:51:18;100219.72;;;12.90;76.31
80382;BME280;69692;55.820;37.490;2023-09-19T04:53:46;100226.19;;;12.89;76.33
80382;BME280;69692;55.820;37.490;2023-09-19T04:56:13;100232.63;;;12.88;76.40
80382;BME280;69692;55.820;37.490;2023-09-19T04:58:39;100219.25;;;12.93;76.72
80382;BME280;69692;55.820;37.490;2023-09-19T05:01:05;100217.28;;;13.00;76.46
80382;BME280;69692;55.820;37.490;2023-09-19T05:03:31;100222.72;;;13.12;76.35
80382;BME280;69692;55.820;37.490;2023-09-19T05:05:57;100210.72;;;13.08;76.66
80382;BME280;69692;55.820;37.490;2023-09-19T05:08:23;100217.91;;;13.14;76.14
80382;BME280;69692;55.820;37.490;2023-09-19T05:10:49;100208.16;;;13.13;76.33
80382;BME280;69692;55.820;37.490;2023-09-19T05:13:16;100206.94;;;13.09;76.89
80382;BME280;69692;55.820;37.490;2023-09-19T05:15:41;100203.91;;;13.17;76.50
80382;BME280;69692;55.820;37.490;2023-09-19T05:18:07;100204.28;;;13.21;76.76
80382;BME280;69692;55.820;37.490;2023-09-19T05:20:34;100206.66;;;13.29;77.05
80382;BME280;69692;55.820;37.490;2023-09-19T05:23:03;100206.66;;;13.29;76.69
80382;BME280;69692;55.820;37.490;2023-09-19T05:25:36;100196.09;;;13.27;76.76
80382;BME280;69692;55.820;37.490;2023-09-19T05:28:09;100200.19;;;13.30;76.92
80382;BME280;69692;55.820;37.490;2023-09-19T05:30:37;100200.44;;;13.28;77.05
80382;BME280;69692;55.820;37.490;2023-09-19T05:33:06;100192.81;;;13.25;77.09
80382;BME280;69692;55.820;37.490;2023-09-19T05:35:34;100196.69;;;13.29;77.07
80382;BME280;69692;55.820;37.490;2023-09-19T05:38:02;100195.03;;;13.28;76.61
80382;BME280;69692;55.820;37.490;2023-09-19T05:40:28;100194.22;;;13.28;76.43
80382;BME280;69692;55.820;37.490;2023-09-19T05:42:54;100201.03;;;13.30;76.85
80382;BME280;69692;55.820;37.490;2023-09-19T05:45:19;100193.72;;;13.31;76.71
80382;BME280;69692;55.820;37.490;2023-09-19T05:47:52;100193.03;;;13.35;76.73
80382;BME280;69692;55.820;37.490;2023-09-19T05:50:21;100188.09;;;13.44;76.55
80382;BME280;69692;55.820;37.490;2023-09-19T05:52:54;100182.06;;;13.54;75.73
80382;BME280;69692;55.820;37.490;2023-09-19T05:55:22;100187.72;;;13.64;75.67
80382;BME280;69692;55.820;37.490;2023-09-19T05:57:52;100187.13;;;13.73;74.94
80382;BME280;69692;55.820;37.490;2023-09-19T06:00:21;100192.75;;;13.84;74.42
80382;BME280;69692;55.820;37.490;2023-09-19T06:02:55;100192.84;;;13.89;74.92
80382;BME280;69692;55.820;37.490;2023-09-19T06:05:23;100194.00;;;14.05;74.11
80382;BME280;69692;55.820;37.490;2023-09-19T06:07:49;100197.25;;;14.18;74.05
80382;BME280;69692;55.820;37.490;2023-09-19T06:10:15;100188.16;;;14.24;73.36
80382;BME280;69692;55.820;37.490;2023-09-19T06:12:44;100190.81;;;14.36;72.94
80382;BME280;69692;55.820;37.490;2023-09-19T06:15:12;100184.06;;;14.50;72.78
80382;BME280;69692;55.820;37.490;2023-09-19T06:17:55;100186.03;;;14.55;72.69
80382;BME280;69692;55.820;37.490;2023-09-19T06:20:23;100184.03;;;14.62;71.91
80382;BME280;69692;55.820;37.490;2023-09-19T06:22:49;100180.19;;;14.75;72.18
80382;BME280;69692;55.820;37.490;2023-09-19T06:25:16;100183.88;;;14.85;71.06
80382;BME280;69692;55.820;37.490;2023-09-19T06:27:46;100176.31;;;14.87;71.24
80382;BME280;69692;55.820;37.490;2023-09-19T06:30:13;100175.94;;;14.96;71.84
80382;BME280;69692;55.820;37.490;2023-09-19T06:32:43;100177.31;;;15.15;70.94
80382;BME280;69692;55.820;37.490;2023-09-19T06:35:14;100168.34;;;15.31;70.26
80382;BME280;69692;55.820;37.490;2023-09-19T06:37:41;100184.00;;;15.46;69.69
80382;BME280;69692;55.820;37.490;2023-09-19T06:40:08;100183.19;;;15.45;69.62
80382;BME280;69692;55.820;37.490;2023-09-19T06:42:50;100187.22;;;15.60;69.05
80382;BME280;69692;55.820;37.490;2023-09-19T06:45:16;100187.13;;;15.71;68.68
80382;BME280;69692;55.820;37.490;2023-09-19T06:47:49;100185.31;;;15.60;68.88
80382;BME280;69692;55.820;37.490;2023-09-19T06:50:21;100189.94;;;15.60;69.19
80382;BME280;69692;55.820;37.490;2023-09-19T06:52:52;100187.38;;;15.53;68.97
80382;BME280;69692;55.820;37.490;2023-09-19T06:55:21;100181.63;;;15.49;69.29
80382;BME280;69692;55.820;37.490;2023-09-19T06:57:51;100176.22;;;15.49;69.40
80382;BME280;69692;55.820;37.490;2023-09-19T07:00:16;100177.28;;;15.48;69.89
80382;BME280;69692;55.820;37.490;2023-09-19T07:03:07;100178.34;;;15.47;69.91
80382;BME280;69692;55.820;37.490;2023-09-19T07:05:40;100168.38;;;15.70;69.35
80382;BME280;69692;55.820;37.490;2023-09-19T07:08:07;100168.19;;;15.76;69.87
80382;BME280;69692;55.820;37.490;2023-09-19T07:10:34;100165.34;;;15.88;69.27
80382;BME280;69692;55.820;37.490;2023-09-19T07:13:01;100176.84;;;15.95;68.77
80382;BME280;69692;55.820;37.490;2023-09-19T07:15:29;100168.81;;;16.05;68.23
80382;BME280;69692;55.820;37.490;2023-09-19T07:17:58;100175.13;;;16.11;68.31
80382;BME280;69692;55.820;37.490;2023-09-19T07:20:26;100173.94;;;16.02;68.32
80382;BME280;69692;55.820;37.490;2023-09-19T07:22:53;100158.97;;;15.99;68.53
80382;BME280;69692;55.820;37.490;2023-09-19T07:25:25;100164.66;;;15.98;68.51
80382;BME280;69692;55.820;37.490;2023-09-19T07:27:52;100164.63;;;15.93;68.59
80382;BME280;69692;55.820;37.490;2023-09-19T07:30:18;100150.72;;;15.89;69.13
80382;BME280;69692;55.820;37.490;2023-09-19T07:32:44;100154.75;;;15.87;69.24
80382;BME280;69692;55.820;37.490;2023-09-19T07:35:09;100158.28;;;16.09;69.26
80382;BME280;69692;55.820;37.490;2023-09-19T07:37:35;100155.66;;;16.19;68.72
80382;BME280;69692;55.820;37.490;2023-09-19T07:40:06;100157.50;;;16.14;68.37
80382;BME280;69692;55.820;37.490;2023-09-19T07:42:35;100150.44;;;16.13;68.49
80382;BME280;69692;55.820;37.490;2023-09-19T07:45:04;100158.59;;;16.13;68.64
80382;BME280;69692;55.820;37.490;2023-09-19T07:47:31;100159.47;;;16.18;68.35
80382;BME280;69692;55.820;37.490;2023-09-19T07:49:59;100148.72;;;16.28;68.27
80382;BME280;69692;55.820;37.490;2023-09-19T07:52:26;100162.00;;;16.52;68.00
80382;BME280;69692;55.820;37.490;2023-09-19T07:54:53;100157.72;;;16.61;67.63
80382;BME280;69692;55.820;37.490;2023-09-19T07:57:19;100154.19;;;16.60;67.57
80382;BME280;69692;55.820;37.490;2023-09-19T07:59:45;100145.22;;;16.60;67.55
80382;BME280;69692;55.820;37.490;2023-09-19T08:02:12;100150.66;;;16.60;67.12
80382;BME280;69692;55.820;37.490;2023-09-19T08:04:44;100139.75;;;16.55;67.23
80382;BME280;69692;55.820;37.490;2023-09-19T08:07:14;100146.97;;;16.44;67.44
80382;BME280;69692;55.820;37.490;2023-09-19T08:09:40;100147.94;;;16.33;67.66
80382;BME280;69692;55.820;37.490;2023-09-19T08:12:07;100150.06;;;16.26;68.53
80382;BME280;69692;55.820;37.490;2023-09-19T08:14:36;100141.53;;;16.17;68.88
80382;BME280;69692;55.820;37.490;2023-09-19T08:17:07;100142.25;;;16.07;69.46
80382;BME280;69692;55.820;37.490;2023-09-19T08:19:34;100145.72;;;16.03;69.71
80382;BME280;69692;55.820;37.490;2023-09-19T08:22:00;100141.09;;;16.03;69.81
80382;BME280;69692;55.820;37.490;2023-09-19T08:24:27;100135.13;;;16.01;69.99
80382;BME280;69692;55.820;37.490;2023-09-19T08:26:55;100132.44;;;16.06;69.92
80382;BME280;69692;55.820;37.490;2023-09-19T08:29:25;100118.66;;;16.08;69.81
80382;BME280;69692;55.820;37.490;2023-09-19T08:31:54;100127.78;;;16.02;70.05
80382;BME280;69692;55.820;37.490;2023-09-19T08:34:25;100132.13;;;16.03;70.25
80382;BME280;69692;55.820;37.490;2023-09-19T08:36:52;100125.03;;;15.97;70.30
80382;BME280;69692;55.820;37.490;2023-09-19T08:39:25;100116.06;;;15.96;70.61
80382;BME280;69692;55.820;37.490;2023-09-19T08:42:01;100112.22;;;15.92;70.80
80382;BME280;69692;55.820;37.490;2023-09-19T08:44:28;100101.69;;;15.96;70.73
80382;BME280;69692;55.820;37.490;2023-09-19T08:47:09;100104.13;;;15.97;70.84
80382;BME280;69692;55.820;37.490;2023-09-19T08:50:00;100103.88;;;15.99;70.95
80382;BME280;69692;55.820;37.490;2023-09-19T08:52:38;100108.00;;;16.06;70.80
80382;BME280;69692;55.820;37.490;2023-09-19T08:55:06;100106.72;;;16.09;70.69
80382;BME280;69692;55.820;37.490;2023-09-19T08:57:36;100111.38;;;16.14;70.47
80382;BME280;69692;55.820;37.490;2023-09-19T09:00:05;100110.06;;;16.21;70.54
80382;BME280;69692;55.820;37.490;2023-09-19T09:02:38;100111.56;;;16.34;70.09
80382;BME280;69692;55.820;37.490;2023-09-19T09:05:10;100113.25;;;16.40;69.88
80382;BME280;69692;55.820;37.490;2023-09-19T09:07:40;100103.78;;;16.43;69.74
80382;BME280;69692;55.820;37.490;2023-09-19T09:10:06;100109.78;;;16.45;69.89
80382;BME280;69692;55.820;37.490;2023-09-19T09:12:34;100101.34;;;16.46;69.63
80382;BME280;69692;55.820;37.490;2023-09-19T09:15:02;100110.63;;;16.50;69.59
80382;BME280;69692;55.820;37.490;2023-09-19T09:17:31;100106.81;;;16.51;69.60
80382;BME280;69692;55.820;37.490;2023-09-19T09:19:57;100116.06;;;16.50;69.59
80382;BME280;69692;55.820;37.490;2023-09-19T09:22:23;100116.13;;;16.55;69.72
80382;BME280;69692;55.820;37.490;2023-09-19T09:24:53;100120.75;;;16.55;69.34
80382;BME280;69692;55.820;37.490;2023-09-19T09:27:31;100113.94;;;16.52;69.67
80382;BME280;69692;55.820;37.490;2023-09-19T09:29:59;100105.78;;;16.52;69.86
80382;BME280;69692;55.820;37.490;2023-09-19T09:32:29;100096.84;;;16.57;69.86
80382;BME280;69692;55.820;37.490;2023-09-19T09:35:00;100098.25;;;16.64;70.13
80382;BME280;69692;55.820;37.490;2023-09-19T09:37:27;100098.66;;;16.78;69.53
80382;BME280;69692;55.820;37.490;2023-09-19T09:39:57;100094.69;;;16.91;68.79
80382;BME280;69692;55.820;37.490;2023-09-19T09:42:34;100087.13;;;16.98;68.74
80382;BME280;69692;55.820;37.490;2023-09-19T09:45:19;100088.88;;;17.14;68.56
80382;BME280;69692;55.820;37.490;2023-09-19T09:48:03;100087.69;;;17.47;67.52
80382;BME280;69692;55.820;37.490;2023-09-19T09:50:33;100084.22;;;17.62;66.92
80382;BME280;69692;55.820;37.490;2023-09-19T09:53:23;100083.94;;;17.64;66.83
80382;BME280;69692;55.820;37.490;2023-09-19T09:56:07;100086.91;;;17.57;66.99
80382;BME280;69692;55.820;37.490;2023-09-19T09:58:50;100083.16;;;17.68;66.76
80382;BME280;69692;55.820;37.490;2023-09-19T10:01:19;100078.31;;;17.75;66.63
80382;BME280;69692;55.820;37.490;2023-09-19T10:03:46;100066.34;;;17.81;66.39
80382;BME280;69692;55.820;37.490;2023-09-19T10:06:17;100068.03;;;18.03;65.69
80382;BME280;69692;55.820;37.490;2023-09-19T10:09:07;100062.63;;;18.54;64.48
80382;BME280;69692;55.820;37.490;2023-09-19T10:11:45;100055.84;;;18.92;63.13
80382;BME280;69692;55.820;37.490;2023-09-19T10:14:12;100054.13;;;19.16;62.07
80382;BME280;69692;55.820;37.490;2023-09-19T10:16:41;100049.44;;;19.32;61.33
80382;BME280;69692;55.820;37.490;2023-09-19T10:19:11;100051.41;;;19.16;61.90
80382;BME280;69692;55.820;37.490;2023-09-19T10:21:41;100047.06;;;19.10;62.27
80382;BME280;69692;55.820;37.490;2023-09-19T10:24:09;100050.63;;;19.05;62.17
80382;BME280;69692;55.820;37.490;2023-09-19T10:26:36;100040.56;;;18.91;63.05
80382;BME280;69692;55.820;37.490;2023-09-19T10:29:06;100047.38;;;18.88;63.72
80382;BME280;69692;55.820;37.490;2023-09-19T10:31:33;100036.75;;;18.82;63.17
80382;BME280;69692;55.820;37.490;2023-09-19T10:34:03;100037.59;;;18.77;63.82
80382;BME280;69692;55.820;37.490;2023-09-19T10:36:33;100042.75;;;18.73;64.24
80382;BME280;69692;55.820;37.490;2023-09-19T10:39:02;100033.22;;;18.76;63.89
80382;BME280;69692;55.820;37.490;2023-09-19T10:41:34;100033.22;;;18.71;63.78
80382;BME280;69692;55.820;37.490;2023-09-19T10:44:04;100032.13;;;18.67;64.10
80382;BME280;69692;55.820;37.490;2023-09-19T10:46:33;100033.75;;;18.63;64.58
80382;BME280;69692;55.820;37.490;2023-09-19T10:49:00;100033.50;;;18.64;64.76
80382;BME280;69692;55.820;37.490;2023-09-19T10:51:31;100035.66;;;18.62;64.26
80382;BME280;69692;55.820;37.490;2023-09-19T10:54:12;100034.03;;;18.61;64.89
80382;BME280;69692;55.820;37.490;2023-09-19T10:56:43;100030.22;;;18.62;64.86
80382;BME280;69692;55.820;37.490;2023-09-19T10:59:14;100031.03;;;18.63;64.72
80382;BME280;69692;55.820;37.490;2023-09-19T11:01:48;100026.09;;;18.60;64.60
80382;BME280;69692;55.820;37.490;2023-09-19T11:04:36;100024.75;;;18.57;65.44
80382;BME280;69692;55.820;37.490;2023-09-19T11:07:09;100019.59;;;18.61;64.81
80382;BME280;69692;55.820;37.490;2023-09-19T11:15:07;100011.44;;;18.66;65.02
80382;BME280;69692;55.820;37.490;2023-09-19T11:17:34;100011.13;;;18.72;65.20
80382;BME280;69692;55.820;37.490;2023-09-19T11:30:37;100002.09;;;18.97;64.35
80382;BME280;69692;55.820;37.490;2023-09-19T11:33:23;99995.78;;;19.02;65.21
80382;BME280;69692;55.820;37.490;2023-09-19T11:36:08;99999.88;;;19.10;65.12
80382;BME280;69692;55.820;37.490;2023-09-19T11:46:26;99981.06;;;20.07;62.11
80382;BME280;69692;55.820;37.490;2023-09-19T11:48:52;99981.63;;;20.43;60.97
80382;BME280;69692;55.820;37.490;2023-09-19T11:51:20;99984.38;;;20.72;60.35
80382;BME280;69692;55.820;37.490;2023-09-19T11:53:50;99978.06;;;20.95;59.82
80382;BME280;69692;55.820;37.490;2023-09-19T11:56:22;99974.00;;;20.93;59.68
80382;BME280;69692;55.820;37.490;2023-09-19T11:58:51;99964.34;;;21.00;59.63
80382;BME280;69692;55.820;37.490;2023-09-19T12:01:24;99958.59;;;21.02;59.67
80382;BME280;69692;55.820;37.490;2023-09-19T12:03:54;99960.16;;;21.08;59.35
80382;BME280;69692;55.820;37.490;2023-09-19T12:06:23;99957.13;;;21.09;59.66
80382;BME280;69692;55.820;37.490;2023-09-19T12:08:50;99951.91;;;21.13;59.72
80382;BME280;69692;55.820;37.490;2023-09-19T12:11:20;99950.25;;;21.12;59.91
80382;BME280;69692;55.820;37.490;2023-09-19T12:13:47;99943.97;;;21.11;59.12
80382;BME280;69692;55.820;37.490;2023-09-19T12:16:19;99943.09;;;21.16;59.69
80382;BME280;69692;55.820;37.490;2023-09-19T12:18:50;99935.09;;;21.20;59.15
80382;BME280;69692;55.820;37.490;2023-09-19T12:23:59;99931.09;;;21.12;59.34
80382;BME280;69692;55.820;37.490;2023-09-19T12:26:39;99932.28;;;21.06;59.79
80382;BME280;69692;55.820;37.490;2023-09-19T12:29:18;99918.66;;;21.01;60.22
80382;BME280;69692;55.820;37.490;2023-09-19T12:31:49;99925.28;;;20.95;60.51
80382;BME280;69692;55.820;37.490;2023-09-19T12:34:29;99920.69;;;20.90;60.77
80382;BME280;69692;55.820;37.490;2023-09-19T12:37:15;99923.81;;;20.83;60.80
80382;BME280;69692;55.820;37.490;2023-09-19T12:39:47;99911.78;;;20.79;60.54
80382;BME280;69692;55.820;37.490;2023-09-19T12:42:22;99917.84;;;20.76;61.09
80382;BME280;69692;55.820;37.490;2023-09-19T12:44:51;99912.44;;;20.71;61.54
80382;BME280;69692;55.820;37.490;2023-09-19T12:47:24;99916.28;;;20.70;61.25
80382;BME280;69692;55.820;37.490;2023-09-19T12:50:13;99906.72;;;20.68;61.43
80382;BME280;69692;55.820;37.490;2023-09-19T12:52:49;99901.25;;;20.68;62.07
80382;BME280;69692;55.820;37.490;2023-09-19T12:55:29;99897.72;;;20.67;62.15
80382;BME280;69692;55.820;37.490;2023-09-19T12:58:01;99900.44;;;20.67;62.50
80382;BME280;69692;55.820;37.490;2023-09-19T13:00:34;99898.25;;;20.69;61.88
80382;BME280;69692;55.820;37.490;2023-09-19T13:05:52;99890.56;;;20.71;61.47
80382;BME280;69692;55.820;37.490;2023-09-19T13:08:27;99896.03;;;20.71;61.98
80382;BME280;69692;55.820;37.490;2023-09-19T13:11:11;99897.16;;;20.70;61.73
80382;BME280;69692;55.820;37.490;2023-09-19T13:13:50;99891.97;;;20.69;62.06
80382;BME280;69692;55.820;37.490;2023-09-19T13:16:21;99890.31;;;20.68;62.39
80382;BME280;69692;55.820;37.490;2023-09-19T13:18:51;99880.75;;;20.70;62.14
80382;BME280;69692;55.820;37.490;2023-09-19T13:21:34;99887.78;;;20.76;62.37
80382;BME280;69692;55.820;37.490;2023-09-19T13:24:24;99875.44;;;20.79;62.71
80382;BME280;69692;55.820;37.490;2023-09-19T13:26:56;99869.38;;;20.82;62.30
80382;BME280;69692;55.820;37.490;2023-09-19T13:29:23;99875.38;;;20.84;62.22
80382;BME280;69692;55.820;37.490;2023-09-19T13:31:49;99878.34;;;20.88;61.83
80382;BME280;69692;55.820;37.490;2023-09-19T13:34:16;99870.66;;;20.90;62.53
80382;BME280;69692;55.820;37.490;2023-09-19T13:36:43;99867.91;;;20.90;62.02